sensor_id;sensor_type;location;lat;lon;timestamp;P1;durP1;ratioP1;P2;durP2;ratioP2
58017;SDS011;43810;50.860;19.226;2023-03-16T00:01:19;74.18;;;26.00;;
58017;SDS011;43810;50.860;19.226;2023-03-16T00:03:46;60.88;;;27.25;;
58017;SDS011;43810;50.860;19.226;2023-03-16T00:06:12;61.67;;;27.55;;
58017;SDS011;43810;50.860;19.226;2023-03-16T00:08:38;70.25;;;28.25;;
58017;SDS011;43810;50.860;19.226;2023-03-16T00:11:04;64.95;;;29.65;;
58017;SDS011;43810;50.860;19.226;2023-03-16T00:13:30;69.82;;;28.92;;
58017;SDS011;43810;50.860;19.226;2023-03-16T00:15:57;73.65;;;29.70;;
58017;SDS011;43810;50.860;19.226;2023-03-16T00:18:25;72.95;;;27.42;;
58017;SDS011;43810;50.860;19.226;2023-03-16T00:20:56;66.97;;;27.65;;
58017;SDS011;43810;50.860;19.226;2023-03-16T00:23:24;62.28;;;28.85;;
58017;SDS011;43810;50.860;19.226;2023-03-16T00:25:57;59.95;;;27.75;;
58017;SDS011;43810;50.860;19.226;2023-03-16T00:28:24;70.55;;;29.65;;
58017;SDS011;43810;50.860;19.226;2023-03-16T00:30:51;66.15;;;29.02;;
58017;SDS011;43810;50.860;19.226;2023-03-16T00:33:23;61.22;;;27.80;;
58017;SDS011;43810;50.860;19.226;2023-03-16T00:35:49;59.20;;;25.95;;
58017;SDS011;43810;50.860;19.226;2023-03-16T00:38:16;64.28;;;27.50;;
58017;SDS011;43810;50.860;19.226;2023-03-16T00:40:43;65.30;;;24.95;;
58017;SDS011;43810;50.860;19.226;2023-03-16T00:43:10;57.47;;;23.90;;
58017;SDS011;43810;50.860;19.226;2023-03-16T00:45:36;69.93;;;26.08;;
58017;SDS011;43810;50.860;19.226;2023-03-16T00:48:02;64.47;;;27.13;;
58017;SDS011;43810;50.860;19.226;2023-03-16T00:50:28;51.20;;;25.83;;
58017;SDS011;43810;50.860;19.226;2023-03-16T00:52:54;58.40;;;25.52;;
58017;SDS011;43810;50.860;19.226;2023-03-16T00:55:20;57.08;;;27.30;;
58017;SDS011;43810;50.860;19.226;2023-03-16T00:57:48;76.00;;;27.95;;
58017;SDS011;43810;50.860;19.226;2023-03-16T01:00:17;58.08;;;26.45;;
58017;SDS011;43810;50.860;19.226;2023-03-16T01:02:45;67.80;;;26.02;;
58017;SDS011;43810;50.860;19.226;2023-03-16T01:05:12;61.90;;;26.85;;
58017;SDS011;43810;50.860;19.226;2023-03-16T01:07:39;62.97;;;27.60;;
58017;SDS011;43810;50.860;19.226;2023-03-16T01:10:07;69.90;;;25.98;;
58017;SDS011;43810;50.860;19.226;2023-03-16T01:12:34;61.22;;;25.98;;
58017;SDS011;43810;50.860;19.226;2023-03-16T01:15:00;57.72;;;25.33;;
58017;SDS011;43810;50.860;19.226;2023-03-16T01:17:26;59.33;;;25.70;;
58017;SDS011;43810;50.860;19.226;2023-03-16T01:19:52;59.92;;;25.67;;
58017;SDS011;43810;50.860;19.226;2023-03-16T01:22:18;56.20;;;24.70;;
58017;SDS011;43810;50.860;19.226;2023-03-16T01:24:44;55.42;;;23.80;;
58017;SDS011;43810;50.860;19.226;2023-03-16T01:27:11;63.75;;;25.20;;
58017;SDS011;43810;50.860;19.226;2023-03-16T01:29:38;59.13;;;25.08;;
58017;SDS011;43810;50.860;19.226;2023-03-16T01:32:05;49.33;;;24.55;;
58017;SDS011;43810;50.860;19.226;2023-03-16T01:34:32;65.97;;;26.63;;
58017;SDS011;43810;50.860;19.226;2023-03-16T01:36:58;62.22;;;26.95;;
58017;SDS011;43810;50.860;19.226;2023-03-16T01:39:25;61.78;;;27.23;;
58017;SDS011;43810;50.860;19.226;2023-03-16T01:41:51;63.58;;;25.48;;
58017;SDS011;43810;50.860;19.226;2023-03-16T01:44:21;66.05;;;29.10;;
58017;SDS011;43810;50.860;19.226;2023-03-16T01:46:52;60.17;;;28.58;;
58017;SDS011;43810;50.860;19.226;2023-03-16T01:49:22;59.53;;;28.02;;
58017;SDS011;43810;50.860;19.226;2023-03-16T01:54:32;55.88;;;27.40;;
58017;SDS011;43810;50.860;19.226;2023-03-16T02:00:18;65.07;;;26.87;;
58017;SDS011;43810;50.860;19.226;2023-03-16T02:02:34;67.28;;;26.35;;
58017;SDS011;43810;50.860;19.226;2023-03-16T02:07:49;65.15;;;29.67;;
58017;SDS011;43810;50.860;19.226;2023-03-16T02:10:23;64.18;;;29.30;;
58017;SDS011;43810;50.860;19.226;2023-03-16T02:12:52;61.20;;;28.40;;
58017;SDS011;43810;50.860;19.226;2023-03-16T02:15:19;72.95;;;30.67;;
58017;SDS011;43810;50.860;19.226;2023-03-16T02:17:46;69.50;;;30.55;;
58017;SDS011;43810;50.860;19.226;2023-03-16T02:22:49;64.60;;;30.13;;
58017;SDS011;43810;50.860;19.226;2023-03-16T02:25:22;57.90;;;26.88;;
58017;SDS011;43810;50.860;19.226;2023-03-16T02:30:35;56.15;;;25.15;;
58017;SDS011;43810;50.860;19.226;2023-03-16T02:33:01;57.13;;;25.70;;
58017;SDS011;43810;50.860;19.226;2023-03-16T02:35:30;53.88;;;25.15;;
58017;SDS011;43810;50.860;19.226;2023-03-16T02:37:56;55.03;;;24.50;;
58017;SDS011;43810;50.860;19.226;2023-03-16T02:40:27;51.58;;;22.92;;
58017;SDS011;43810;50.860;19.226;2023-03-16T02:45:34;48.22;;;21.48;;
58017;SDS011;43810;50.860;19.226;2023-03-16T02:48:04;55.40;;;23.55;;
58017;SDS011;43810;50.860;19.226;2023-03-16T02:50:33;45.50;;;21.42;;
58017;SDS011;43810;50.860;19.226;2023-03-16T02:52:59;53.45;;;23.63;;
58017;SDS011;43810;50.860;19.226;2023-03-16T02:55:25;50.50;;;22.92;;
58017;SDS011;43810;50.860;19.226;2023-03-16T02:57:51;47.75;;;23.20;;
58017;SDS011;43810;50.860;19.226;2023-03-16T03:00:17;51.65;;;22.15;;
58017;SDS011;43810;50.860;19.226;2023-03-16T03:02:43;53.10;;;22.55;;
58017;SDS011;43810;50.860;19.226;2023-03-16T03:05:11;47.10;;;22.23;;
58017;SDS011;43810;50.860;19.226;2023-03-16T03:07:36;51.28;;;22.23;;
58017;SDS011;43810;50.860;19.226;2023-03-16T03:10:04;44.03;;;22.42;;
58017;SDS011;43810;50.860;19.226;2023-03-16T03:12:31;47.70;;;21.90;;
58017;SDS011;43810;50.860;19.226;2023-03-16T03:14:58;50.92;;;23.23;;
58017;SDS011;43810;50.860;19.226;2023-03-16T03:17:24;51.25;;;21.10;;
58017;SDS011;43810;50.860;19.226;2023-03-16T03:19:58;41.33;;;20.63;;
58017;SDS011;43810;50.860;19.226;2023-03-16T03:22:26;43.00;;;20.50;;
58017;SDS011;43810;50.860;19.226;2023-03-16T03:24:52;49.38;;;21.23;;
58017;SDS011;43810;50.860;19.226;2023-03-16T03:27:19;51.45;;;22.38;;
58017;SDS011;43810;50.860;19.226;2023-03-16T03:29:47;49.42;;;22.52;;
58017;SDS011;43810;50.860;19.226;2023-03-16T03:32:12;49.92;;;19.92;;
58017;SDS011;43810;50.860;19.226;2023-03-16T03:34:38;49.50;;;22.02;;
58017;SDS011;43810;50.860;19.226;2023-03-16T03:37:04;44.85;;;21.77;;
58017;SDS011;43810;50.860;19.226;2023-03-16T03:39:30;54.20;;;21.92;;
58017;SDS011;43810;50.860;19.226;2023-03-16T03:41:56;46.97;;;22.45;;
58017;SDS011;43810;50.860;19.226;2023-03-16T03:44:22;47.63;;;20.77;;
58017;SDS011;43810;50.860;19.226;2023-03-16T03:46:48;43.05;;;21.17;;
58017;SDS011;43810;50.860;19.226;2023-03-16T03:49:16;44.75;;;21.92;;
58017;SDS011;43810;50.860;19.226;2023-03-16T03:51:42;47.65;;;18.92;;
58017;SDS011;43810;50.860;19.226;2023-03-16T03:54:08;43.80;;;19.95;;
58017;SDS011;43810;50.860;19.226;2023-03-16T03:56:34;43.08;;;20.73;;
58017;SDS011;43810;50.860;19.226;2023-03-16T03:59:01;47.90;;;21.67;;
58017;SDS011;43810;50.860;19.226;2023-03-16T04:01:26;51.50;;;22.58;;
58017;SDS011;43810;50.860;19.226;2023-03-16T04:03:53;46.33;;;20.08;;
58017;SDS011;43810;50.860;19.226;2023-03-16T04:06:18;49.80;;;20.00;;
58017;SDS011;43810;50.860;19.226;2023-03-16T04:08:44;54.58;;;20.25;;
58017;SDS011;43810;50.860;19.226;2023-03-16T04:11:10;47.13;;;19.88;;
58017;SDS011;43810;50.860;19.226;2023-03-16T04:13:36;45.08;;;19.88;;
58017;SDS011;43810;50.860;19.226;2023-03-16T04:16:02;43.63;;;19.40;;
58017;SDS011;43810;50.860;19.226;2023-03-16T04:18:29;43.08;;;20.33;;
58017;SDS011;43810;50.860;19.226;2023-03-16T04:21:05;40.97;;;18.00;;
58017;SDS011;43810;50.860;19.226;2023-03-16T04:23:32;47.42;;;20.85;;
58017;SDS011;43810;50.860;19.226;2023-03-16T04:25:59;53.67;;;21.45;;
58017;SDS011;43810;50.860;19.226;2023-03-16T04:28:25;47.63;;;21.50;;
58017;SDS011;43810;50.860;19.226;2023-03-16T04:30:52;44.03;;;19.27;;
58017;SDS011;43810;50.860;19.226;2023-03-16T04:33:21;43.40;;;18.65;;
58017;SDS011;43810;50.860;19.226;2023-03-16T04:35:47;42.20;;;19.38;;
58017;SDS011;43810;50.860;19.226;2023-03-16T04:38:13;43.88;;;18.15;;
58017;SDS011;43810;50.860;19.226;2023-03-16T04:40:39;41.95;;;19.25;;
58017;SDS011;43810;50.860;19.226;2023-03-16T04:43:05;47.80;;;21.27;;
58017;SDS011;43810;50.860;19.226;2023-03-16T04:45:31;42.42;;;19.63;;
58017;SDS011;43810;50.860;19.226;2023-03-16T04:47:57;44.35;;;21.48;;
58017;SDS011;43810;50.860;19.226;2023-03-16T04:50:23;45.70;;;20.60;;
58017;SDS011;43810;50.860;19.226;2023-03-16T04:52:50;47.85;;;22.42;;
58017;SDS011;43810;50.860;19.226;2023-03-16T04:55:16;42.40;;;21.02;;
58017;SDS011;43810;50.860;19.226;2023-03-16T04:57:42;39.25;;;19.58;;
58017;SDS011;43810;50.860;19.226;2023-03-16T05:00:08;34.78;;;17.38;;
58017;SDS011;43810;50.860;19.226;2023-03-16T05:02:36;38.10;;;16.88;;
58017;SDS011;43810;50.860;19.226;2023-03-16T05:05:03;39.72;;;16.00;;
58017;SDS011;43810;50.860;19.226;2023-03-16T05:07:29;36.72;;;17.48;;
58017;SDS011;43810;50.860;19.226;2023-03-16T05:09:56;34.63;;;16.73;;
58017;SDS011;43810;50.860;19.226;2023-03-16T05:12:22;37.88;;;16.75;;
58017;SDS011;43810;50.860;19.226;2023-03-16T05:14:48;34.97;;;15.93;;
58017;SDS011;43810;50.860;19.226;2023-03-16T05:17:14;28.48;;;16.35;;
58017;SDS011;43810;50.860;19.226;2023-03-16T05:19:39;37.70;;;15.77;;
58017;SDS011;43810;50.860;19.226;2023-03-16T05:22:07;42.40;;;18.25;;
58017;SDS011;43810;50.860;19.226;2023-03-16T05:24:33;33.95;;;18.33;;
58017;SDS011;43810;50.860;19.226;2023-03-16T05:26:59;36.08;;;18.08;;
58017;SDS011;43810;50.860;19.226;2023-03-16T05:29:28;37.88;;;17.27;;
58017;SDS011;43810;50.860;19.226;2023-03-16T05:31:56;39.17;;;17.83;;
58017;SDS011;43810;50.860;19.226;2023-03-16T05:34:23;49.17;;;21.75;;
58017;SDS011;43810;50.860;19.226;2023-03-16T05:36:49;49.90;;;20.45;;
58017;SDS011;43810;50.860;19.226;2023-03-16T05:39:15;44.33;;;19.45;;
58017;SDS011;43810;50.860;19.226;2023-03-16T05:41:41;51.65;;;20.05;;
58017;SDS011;43810;50.860;19.226;2023-03-16T05:44:07;46.95;;;18.08;;
58017;SDS011;43810;50.860;19.226;2023-03-16T05:46:33;41.40;;;18.67;;
58017;SDS011;43810;50.860;19.226;2023-03-16T05:48:59;43.35;;;19.52;;
58017;SDS011;43810;50.860;19.226;2023-03-16T05:51:25;46.50;;;21.33;;
58017;SDS011;43810;50.860;19.226;2023-03-16T05:53:51;47.28;;;20.48;;
58017;SDS011;43810;50.860;19.226;2023-03-16T05:56:24;45.33;;;21.83;;
58017;SDS011;43810;50.860;19.226;2023-03-16T05:58:51;57.45;;;24.85;;
58017;SDS011;43810;50.860;19.226;2023-03-16T06:01:18;55.75;;;24.63;;
58017;SDS011;43810;50.860;19.226;2023-03-16T06:03:45;57.25;;;24.13;;
58017;SDS011;43810;50.860;19.226;2023-03-16T06:06:14;49.47;;;23.33;;
58017;SDS011;43810;50.860;19.226;2023-03-16T06:08:41;57.72;;;24.27;;
58017;SDS011;43810;50.860;19.226;2023-03-16T06:11:08;48.30;;;21.65;;
58017;SDS011;43810;50.860;19.226;2023-03-16T06:13:35;44.55;;;20.75;;
58017;SDS011;43810;50.860;19.226;2023-03-16T06:16:02;46.15;;;21.00;;
58017;SDS011;43810;50.860;19.226;2023-03-16T06:18:30;52.88;;;22.83;;
58017;SDS011;43810;50.860;19.226;2023-03-16T06:20:57;46.13;;;21.15;;
58017;SDS011;43810;50.860;19.226;2023-03-16T06:23:23;43.70;;;21.35;;
58017;SDS011;43810;50.860;19.226;2023-03-16T06:25:49;42.78;;;19.90;;
58017;SDS011;43810;50.860;19.226;2023-03-16T06:28:15;44.20;;;21.42;;
58017;SDS011;43810;50.860;19.226;2023-03-16T06:30:41;46.45;;;20.58;;
58017;SDS011;43810;50.860;19.226;2023-03-16T06:33:07;49.15;;;22.38;;
58017;SDS011;43810;50.860;19.226;2023-03-16T06:35:33;43.58;;;21.55;;
58017;SDS011;43810;50.860;19.226;2023-03-16T06:37:59;51.35;;;23.67;;
58017;SDS011;43810;50.860;19.226;2023-03-16T06:40:25;52.45;;;23.95;;
58017;SDS011;43810;50.860;19.226;2023-03-16T06:42:51;53.40;;;21.35;;
58017;SDS011;43810;50.860;19.226;2023-03-16T06:45:17;49.40;;;22.70;;
58017;SDS011;43810;50.860;19.226;2023-03-16T06:47:46;51.00;;;20.73;;
58017;SDS011;43810;50.860;19.226;2023-03-16T06:50:12;43.95;;;20.00;;
58017;SDS011;43810;50.860;19.226;2023-03-16T06:52:39;40.22;;;19.08;;
58017;SDS011;43810;50.860;19.226;2023-03-16T06:55:06;42.10;;;18.88;;
58017;SDS011;43810;50.860;19.226;2023-03-16T06:57:32;41.95;;;18.55;;
58017;SDS011;43810;50.860;19.226;2023-03-16T06:59:58;45.33;;;18.33;;
58017;SDS011;43810;50.860;19.226;2023-03-16T07:02:24;35.28;;;18.08;;
58017;SDS011;43810;50.860;19.226;2023-03-16T07:05:09;36.90;;;18.50;;
58017;SDS011;43810;50.860;19.226;2023-03-16T07:07:41;35.25;;;18.25;;
58017;SDS011;43810;50.860;19.226;2023-03-16T07:10:12;36.55;;;17.30;;
58017;SDS011;43810;50.860;19.226;2023-03-16T07:12:44;41.38;;;17.15;;
58017;SDS011;43810;50.860;19.226;2023-03-16T07:15:11;45.33;;;17.00;;
58017;SDS011;43810;50.860;19.226;2023-03-16T07:17:40;40.42;;;17.90;;
58017;SDS011;43810;50.860;19.226;2023-03-16T07:20:07;40.20;;;17.88;;
58017;SDS011;43810;50.860;19.226;2023-03-16T07:22:40;37.00;;;16.40;;
58017;SDS011;43810;50.860;19.226;2023-03-16T07:25:06;37.13;;;16.10;;
58017;SDS011;43810;50.860;19.226;2023-03-16T07:27:37;37.42;;;16.05;;
58017;SDS011;43810;50.860;19.226;2023-03-16T07:30:04;31.58;;;16.13;;
58017;SDS011;43810;50.860;19.226;2023-03-16T07:32:31;26.25;;;14.30;;
58017;SDS011;43810;50.860;19.226;2023-03-16T07:34:58;28.05;;;14.77;;
58017;SDS011;43810;50.860;19.226;2023-03-16T07:37:24;31.70;;;12.95;;
58017;SDS011;43810;50.860;19.226;2023-03-16T07:39:50;28.30;;;13.27;;
58017;SDS011;43810;50.860;19.226;2023-03-16T07:42:19;25.40;;;12.20;;
58017;SDS011;43810;50.860;19.226;2023-03-16T07:44:47;28.90;;;11.95;;
58017;SDS011;43810;50.860;19.226;2023-03-16T07:47:16;25.08;;;11.65;;
58017;SDS011;43810;50.860;19.226;2023-03-16T07:49:43;23.80;;;10.32;;
58017;SDS011;43810;50.860;19.226;2023-03-16T07:52:10;23.85;;;10.38;;
58017;SDS011;43810;50.860;19.226;2023-03-16T07:54:39;24.52;;;12.98;;
58017;SDS011;43810;50.860;19.226;2023-03-16T07:57:06;25.08;;;12.98;;
58017;SDS011;43810;50.860;19.226;2023-03-16T07:59:35;22.55;;;10.98;;
58017;SDS011;43810;50.860;19.226;2023-03-16T08:02:01;20.30;;;11.07;;
58017;SDS011;43810;50.860;19.226;2023-03-16T08:04:28;25.77;;;10.52;;
58017;SDS011;43810;50.860;19.226;2023-03-16T08:06:54;21.83;;;10.20;;
58017;SDS011;43810;50.860;19.226;2023-03-16T08:09:25;27.65;;;10.75;;
58017;SDS011;43810;50.860;19.226;2023-03-16T08:11:52;21.33;;;10.65;;
58017;SDS011;43810;50.860;19.226;2023-03-16T08:14:18;19.85;;;10.40;;
58017;SDS011;43810;50.860;19.226;2023-03-16T08:16:45;21.15;;;10.25;;
58017;SDS011;43810;50.860;19.226;2023-03-16T08:19:11;25.35;;;9.35;;
58017;SDS011;43810;50.860;19.226;2023-03-16T08:21:41;21.08;;;10.25;;
58017;SDS011;43810;50.860;19.226;2023-03-16T08:24:08;22.10;;;9.70;;
58017;SDS011;43810;50.860;19.226;2023-03-16T08:26:40;28.85;;;10.77;;
58017;SDS011;43810;50.860;19.226;2023-03-16T08:29:06;22.95;;;10.00;;
58017;SDS011;43810;50.860;19.226;2023-03-16T08:31:32;20.27;;;9.15;;
58017;SDS011;43810;50.860;19.226;2023-03-16T08:33:59;29.17;;;13.25;;
58017;SDS011;43810;50.860;19.226;2023-03-16T08:36:27;26.52;;;11.48;;
58017;SDS011;43810;50.860;19.226;2023-03-16T08:38:53;15.60;;;7.10;;
58017;SDS011;43810;50.860;19.226;2023-03-16T08:41:20;15.75;;;7.75;;
58017;SDS011;43810;50.860;19.226;2023-03-16T08:43:47;19.48;;;7.60;;
58017;SDS011;43810;50.860;19.226;2023-03-16T08:46:14;52.88;;;15.48;;
58017;SDS011;43810;50.860;19.226;2023-03-16T08:48:41;15.55;;;7.38;;
58017;SDS011;43810;50.860;19.226;2023-03-16T08:51:08;20.10;;;8.52;;
58017;SDS011;43810;50.860;19.226;2023-03-16T08:53:35;16.48;;;7.28;;
58017;SDS011;43810;50.860;19.226;2023-03-16T08:56:02;16.75;;;6.90;;
58017;SDS011;43810;50.860;19.226;2023-03-16T08:58:32;12.18;;;6.80;;
58017;SDS011;43810;50.860;19.226;2023-03-16T09:01:01;12.75;;;5.90;;
58017;SDS011;43810;50.860;19.226;2023-03-16T09:03:33;20.52;;;7.60;;
58017;SDS011;43810;50.860;19.226;2023-03-16T09:06:01;18.50;;;8.27;;
58017;SDS011;43810;50.860;19.226;2023-03-16T09:08:29;16.05;;;6.45;;
58017;SDS011;43810;50.860;19.226;2023-03-16T09:11:00;21.48;;;8.07;;
58017;SDS011;43810;50.860;19.226;2023-03-16T09:13:28;15.82;;;6.85;;
58017;SDS011;43810;50.860;19.226;2023-03-16T09:15:56;13.52;;;6.38;;
58017;SDS011;43810;50.860;19.226;2023-03-16T09:18:23;12.73;;;6.63;;
58017;SDS011;43810;50.860;19.226;2023-03-16T09:21:00;11.13;;;6.85;;
58017;SDS011;43810;50.860;19.226;2023-03-16T09:23:28;25.88;;;9.57;;
58017;SDS011;43810;50.860;19.226;2023-03-16T09:25:57;17.52;;;7.45;;
58017;SDS011;43810;50.860;19.226;2023-03-16T09:28:28;20.55;;;7.72;;
58017;SDS011;43810;50.860;19.226;2023-03-16T09:30:56;12.57;;;5.30;;
58017;SDS011;43810;50.860;19.226;2023-03-16T09:33:24;21.83;;;6.78;;
58017;SDS011;43810;50.860;19.226;2023-03-16T09:35:53;15.02;;;6.72;;
58017;SDS011;43810;50.860;19.226;2023-03-16T09:38:22;9.48;;;4.28;;
58017;SDS011;43810;50.860;19.226;2023-03-16T09:40:59;10.10;;;4.25;;
58017;SDS011;43810;50.860;19.226;2023-03-16T09:48:50;9.00;;;4.72;;
58017;SDS011;43810;50.860;19.226;2023-03-16T09:51:22;11.38;;;5.43;;
58017;SDS011;43810;50.860;19.226;2023-03-16T09:53:57;7.50;;;4.07;;
58017;SDS011;43810;50.860;19.226;2023-03-16T09:56:29;18.70;;;6.50;;
58017;SDS011;43810;50.860;19.226;2023-03-16T09:59:01;7.93;;;3.38;;
58017;SDS011;43810;50.860;19.226;2023-03-16T10:12:40;5.55;;;3.17;;
58017;SDS011;43810;50.860;19.226;2023-03-16T10:15:14;6.55;;;2.90;;
58017;SDS011;43810;50.860;19.226;2023-03-16T10:17:51;15.65;;;4.60;;
58017;SDS011;43810;50.860;19.226;2023-03-16T10:20:27;9.23;;;3.97;;
58017;SDS011;43810;50.860;19.226;2023-03-16T10:22:58;9.07;;;4.28;;
58017;SDS011;43810;50.860;19.226;2023-03-16T10:25:48;12.32;;;4.10;;
58017;SDS011;43810;50.860;19.226;2023-03-16T10:28:17;8.63;;;2.67;;
58017;SDS011;43810;50.860;19.226;2023-03-16T10:30:49;10.80;;;3.95;;
58017;SDS011;43810;50.860;19.226;2023-03-16T10:36:09;10.05;;;2.88;;
58017;SDS011;43810;50.860;19.226;2023-03-16T10:46:25;11.70;;;3.53;;
58017;SDS011;43810;50.860;19.226;2023-03-16T10:48:54;11.82;;;3.03;;
58017;SDS011;43810;50.860;19.226;2023-03-16T10:51:27;8.15;;;2.33;;
58017;SDS011;43810;50.860;19.226;2023-03-16T10:54:00;17.50;;;5.40;;
58017;SDS011;43810;50.860;19.226;2023-03-16T10:56:35;10.02;;;3.63;;
58017;SDS011;43810;50.860;19.226;2023-03-16T10:59:11;7.38;;;3.58;;
58017;SDS011;43810;50.860;19.226;2023-03-16T11:01:50;10.52;;;4.10;;
58017;SDS011;43810;50.860;19.226;2023-03-16T11:04:17;22.23;;;7.32;;
58017;SDS011;43810;50.860;19.226;2023-03-16T11:07:02;11.20;;;5.22;;
58017;SDS011;43810;50.860;19.226;2023-03-16T11:09:34;9.05;;;3.40;;
58017;SDS011;43810;50.860;19.226;2023-03-16T11:12:11;6.72;;;3.08;;
58017;SDS011;43810;50.860;19.226;2023-03-16T11:14:44;6.97;;;2.72;;
58017;SDS011;43810;50.860;19.226;2023-03-16T11:17:14;7.00;;;2.58;;
58017;SDS011;43810;50.860;19.226;2023-03-16T11:22:25;9.90;;;3.35;;
58017;SDS011;43810;50.860;19.226;2023-03-16T11:24:59;8.23;;;3.25;;
58017;SDS011;43810;50.860;19.226;2023-03-16T11:27:35;7.57;;;3.05;;
58017;SDS011;43810;50.860;19.226;2023-03-16T11:30:04;6.35;;;2.85;;
58017;SDS011;43810;50.860;19.226;2023-03-16T11:32:38;5.32;;;2.45;;
58017;SDS011;43810;50.860;19.226;2023-03-16T11:35:12;4.43;;;2.08;;
58017;SDS011;43810;50.860;19.226;2023-03-16T11:51:03;8.63;;;3.30;;
58017;SDS011;43810;50.860;19.226;2023-03-16T11:56:51;8.00;;;2.90;;
58017;SDS011;43810;50.860;19.226;2023-03-16T12:13:42;6.45;;;2.83;;
58017;SDS011;43810;50.860;19.226;2023-03-16T12:19:14;5.75;;;2.70;;
58017;SDS011;43810;50.860;19.226;2023-03-16T12:21:48;4.40;;;1.70;;
58017;SDS011;43810;50.860;19.226;2023-03-16T12:24:30;5.28;;;2.10;;
58017;SDS011;43810;50.860;19.226;2023-03-16T12:27:03;6.15;;;2.10;;
58017;SDS011;43810;50.860;19.226;2023-03-16T12:29:33;7.70;;;2.83;;
58017;SDS011;43810;50.860;19.226;2023-03-16T12:35:20;3.75;;;2.25;;
58017;SDS011;43810;50.860;19.226;2023-03-16T12:38:06;10.13;;;3.65;;
58017;SDS011;43810;50.860;19.226;2023-03-16T12:43:50;5.93;;;2.90;;
58017;SDS011;43810;50.860;19.226;2023-03-16T12:48:52;9.88;;;3.60;;
58017;SDS011;43810;50.860;19.226;2023-03-16T12:51:31;4.80;;;2.65;;
58017;SDS011;43810;50.860;19.226;2023-03-16T12:54:16;6.75;;;2.50;;
58017;SDS011;43810;50.860;19.226;2023-03-16T12:56:48;11.68;;;3.35;;
58017;SDS011;43810;50.860;19.226;2023-03-16T12:59:18;10.88;;;4.15;;
58017;SDS011;43810;50.860;19.226;2023-03-16T13:01:57;8.55;;;3.10;;
58017;SDS011;43810;50.860;19.226;2023-03-16T13:04:29;17.15;;;5.35;;
58017;SDS011;43810;50.860;19.226;2023-03-16T13:07:22;7.97;;;3.63;;
58017;SDS011;43810;50.860;19.226;2023-03-16T13:09:56;11.57;;;3.92;;
58017;SDS011;43810;50.860;19.226;2023-03-16T13:12:30;6.22;;;1.90;;
58017;SDS011;43810;50.860;19.226;2023-03-16T13:15:02;5.35;;;1.95;;
58017;SDS011;43810;50.860;19.226;2023-03-16T13:20:58;7.72;;;2.45;;
58017;SDS011;43810;50.860;19.226;2023-03-16T13:23:58;7.63;;;2.40;;
58017;SDS011;43810;50.860;19.226;2023-03-16T13:29:20;5.35;;;2.10;;
58017;SDS011;43810;50.860;19.226;2023-03-16T13:31:54;11.48;;;2.92;;
58017;SDS011;43810;50.860;19.226;2023-03-16T13:34:34;6.40;;;2.72;;
58017;SDS011;43810;50.860;19.226;2023-03-16T13:37:11;3.55;;;1.92;;
58017;SDS011;43810;50.860;19.226;2023-03-16T13:39:50;10.30;;;3.17;;
58017;SDS011;43810;50.860;19.226;2023-03-16T13:42:19;4.18;;;2.08;;
58017;SDS011;43810;50.860;19.226;2023-03-16T13:44:47;4.43;;;2.05;;
58017;SDS011;43810;50.860;19.226;2023-03-16T13:47:13;9.52;;;3.78;;
58017;SDS011;43810;50.860;19.226;2023-03-16T13:49:43;6.00;;;2.40;;
58017;SDS011;43810;50.860;19.226;2023-03-16T13:52:15;6.15;;;2.45;;
58017;SDS011;43810;50.860;19.226;2023-03-16T13:54:56;5.97;;;2.40;;
58017;SDS011;43810;50.860;19.226;2023-03-16T13:57:23;7.40;;;2.35;;
58017;SDS011;43810;50.860;19.226;2023-03-16T13:59:59;9.50;;;3.28;;
58017;SDS011;43810;50.860;19.226;2023-03-16T14:02:30;6.40;;;2.30;;
58017;SDS011;43810;50.860;19.226;2023-03-16T14:04:56;8.63;;;3.13;;
58017;SDS011;43810;50.860;19.226;2023-03-16T14:07:21;8.48;;;2.97;;
58017;SDS011;43810;50.860;19.226;2023-03-16T14:09:49;4.88;;;2.40;;
58017;SDS011;43810;50.860;19.226;2023-03-16T14:12:17;5.65;;;2.03;;
58017;SDS011;43810;50.860;19.226;2023-03-16T14:14:45;5.60;;;2.10;;
58017;SDS011;43810;50.860;19.226;2023-03-16T14:17:19;7.13;;;2.20;;
58017;SDS011;43810;50.860;19.226;2023-03-16T14:19:48;7.82;;;2.65;;
58017;SDS011;43810;50.860;19.226;2023-03-16T14:22:21;12.98;;;4.13;;
58017;SDS011;43810;50.860;19.226;2023-03-16T14:30:26;10.73;;;3.70;;
58017;SDS011;43810;50.860;19.226;2023-03-16T14:32:53;6.85;;;2.95;;
58017;SDS011;43810;50.860;19.226;2023-03-16T14:35:21;6.30;;;2.80;;
58017;SDS011;43810;50.860;19.226;2023-03-16T14:37:49;6.47;;;3.13;;
58017;SDS011;43810;50.860;19.226;2023-03-16T14:40:26;8.95;;;4.28;;
58017;SDS011;43810;50.860;19.226;2023-03-16T14:42:56;14.25;;;4.30;;
58017;SDS011;43810;50.860;19.226;2023-03-16T14:45:32;6.78;;;3.40;;
58017;SDS011;43810;50.860;19.226;2023-03-16T14:48:03;5.00;;;1.90;;
58017;SDS011;43810;50.860;19.226;2023-03-16T14:50:33;8.45;;;2.42;;
58017;SDS011;43810;50.860;19.226;2023-03-16T14:52:59;5.68;;;2.40;;
58017;SDS011;43810;50.860;19.226;2023-03-16T14:55:27;6.40;;;2.47;;
58017;SDS011;43810;50.860;19.226;2023-03-16T14:57:52;8.15;;;2.45;;
58017;SDS011;43810;50.860;19.226;2023-03-16T15:00:19;5.80;;;2.78;;
58017;SDS011;43810;50.860;19.226;2023-03-16T15:02:53;4.78;;;2.40;;
58017;SDS011;43810;50.860;19.226;2023-03-16T15:05:23;7.80;;;2.25;;
58017;SDS011;43810;50.860;19.226;2023-03-16T15:10:25;5.57;;;1.88;;
58017;SDS011;43810;50.860;19.226;2023-03-16T15:12:53;8.50;;;2.40;;
58017;SDS011;43810;50.860;19.226;2023-03-16T15:15:28;6.28;;;1.80;;
58017;SDS011;43810;50.860;19.226;2023-03-16T15:17:55;10.90;;;2.50;;
58017;SDS011;43810;50.860;19.226;2023-03-16T15:20:22;7.60;;;2.90;;
58017;SDS011;43810;50.860;19.226;2023-03-16T15:22:54;13.18;;;4.90;;
58017;SDS011;43810;50.860;19.226;2023-03-16T15:25:25;6.78;;;3.17;;
58017;SDS011;43810;50.860;19.226;2023-03-16T15:28:16;8.30;;;2.92;;
58017;SDS011;43810;50.860;19.226;2023-03-16T15:30:45;7.18;;;3.22;;
58017;SDS011;43810;50.860;19.226;2023-03-16T15:33:15;9.93;;;3.25;;
58017;SDS011;43810;50.860;19.226;2023-03-16T15:35:41;14.57;;;3.95;;
58017;SDS011;43810;50.860;19.226;2023-03-16T15:38:13;8.27;;;3.20;;
58017;SDS011;43810;50.860;19.226;2023-03-16T15:40:40;8.15;;;2.35;;
58017;SDS011;43810;50.860;19.226;2023-03-16T15:43:10;5.10;;;2.38;;
58017;SDS011;43810;50.860;19.226;2023-03-16T15:45:37;5.05;;;1.95;;
58017;SDS011;43810;50.860;19.226;2023-03-16T15:48:03;5.22;;;2.47;;
58017;SDS011;43810;50.860;19.226;2023-03-16T15:50:30;12.77;;;4.13;;
58017;SDS011;43810;50.860;19.226;2023-03-16T15:52:56;17.25;;;6.80;;
58017;SDS011;43810;50.860;19.226;2023-03-16T15:55:31;12.90;;;3.42;;
58017;SDS011;43810;50.860;19.226;2023-03-16T15:58:00;7.60;;;3.40;;
58017;SDS011;43810;50.860;19.226;2023-03-16T16:00:29;9.32;;;3.03;;
58017;SDS011;43810;50.860;19.226;2023-03-16T16:02:57;21.48;;;6.78;;
58017;SDS011;43810;50.860;19.226;2023-03-16T16:05:24;10.65;;;4.97;;
58017;SDS011;43810;50.860;19.226;2023-03-16T16:07:51;15.95;;;6.10;;
58017;SDS011;43810;50.860;19.226;2023-03-16T16:10:19;15.00;;;5.72;;
58017;SDS011;43810;50.860;19.226;2023-03-16T16:12:45;12.52;;;4.32;;